createdAt,value
2018-09-20T00:00:52.134Z,5.10
2018-09-20T00:01:52.284Z,5.10
2018-09-20T00:02:52.439Z,4.80
2018-09-20T00:03:52.594Z,5.00
2018-09-20T00:04:52.750Z,4.70
2018-09-20T00:05:52.905Z,4.80
2018-09-20T00:06:53.060Z,4.80
2018-09-20T00:07:53.215Z,4.90
2018-09-20T00:08:53.369Z,4.50
2018-09-20T00:09:53.527Z,4.90
2018-09-20T00:10:53.680Z,4.80
2018-09-20T00:11:53.830Z,4.90
2018-09-20T00:12:53.982Z,4.90
2018-09-20T00:13:54.135Z,4.60
2018-09-20T00:14:54.292Z,4.80
2018-09-20T00:15:54.445Z,4.80
2018-09-20T00:16:54.597Z,4.80
2018-09-20T00:17:54.752Z,4.60
2018-09-20T00:18:54.906Z,4.60
2018-09-20T00:19:55.059Z,4.90
2018-09-20T00:20:55.216Z,4.80
2018-09-20T00:21:55.366Z,4.80
2018-09-20T00:22:55.520Z,4.70
2018-09-20T00:23:55.673Z,4.90
2018-09-20T00:24:55.828Z,4.40
2018-09-20T00:25:55.981Z,4.60
2018-09-20T00:26:56.132Z,4.60
2018-09-20T00:27:56.286Z,4.60
2018-09-20T00:28:56.441Z,4.60
2018-09-20T00:29:56.598Z,4.60
2018-09-20T00:30:56.748Z,5.00
2018-09-20T00:31:56.902Z,5.10
2018-09-20T00:32:57.057Z,4.50
2018-09-20T00:33:57.210Z,5.00
2018-09-20T00:34:57.362Z,4.90
2018-09-20T00:35:57.517Z,4.80
2018-09-20T00:36:57.676Z,4.80
2018-09-20T00:37:57.828Z,4.70
2018-09-20T00:38:57.983Z,4.70
2018-09-20T00:39:58.139Z,4.60
2018-09-20T00:40:58.290Z,5.30
2018-09-20T00:41:58.443Z,5.10
2018-09-20T00:42:58.595Z,4.80
2018-09-20T00:43:58.749Z,5.00
2018-09-20T00:44:58.905Z,5.10
2018-09-20T00:45:59.057Z,4.80
2018-09-20T00:46:59.208Z,4.90
2018-09-20T00:47:59.363Z,5.20
2018-09-20T00:48:59.513Z,4.80
2018-09-20T00:49:59.665Z,4.90
2018-09-20T00:50:59.818Z,5.10
2018-09-20T00:51:59.971Z,4.90
2018-09-20T00:53:00.127Z,4.90
2018-09-20T00:54:00.281Z,5.40
2018-09-20T00:55:00.434Z,5.00
2018-09-20T00:56:00.588Z,5.20
2018-09-20T00:57:00.740Z,5.30
2018-09-20T00:58:00.891Z,4.90
2018-09-20T00:59:01.046Z,5.10
2018-09-20T01:00:01.199Z,5.20
2018-09-20T01:01:01.355Z,5.20
2018-09-20T01:02:01.507Z,5.30
2018-09-20T01:03:01.664Z,4.80
2018-09-20T01:04:01.814Z,4.70
2018-09-20T01:05:01.966Z,4.90
2018-09-20T01:06:02.120Z,5.20
2018-09-20T01:07:02.274Z,5.50
2018-09-20T01:08:02.428Z,4.70
2018-09-20T01:09:02.579Z,5.20
2018-09-20T01:10:02.735Z,5.70
2018-09-20T01:11:02.888Z,5.30
2018-09-20T01:12:03.042Z,5.20
2018-09-20T01:13:03.196Z,4.90
2018-09-20T01:14:03.347Z,5.20
2018-09-20T01:15:03.502Z,5.40
2018-09-20T01:16:03.655Z,5.10
2018-09-20T01:17:03.809Z,5.40
2018-09-20T01:18:03.963Z,5.00
2018-09-20T01:19:04.116Z,5.30
2018-09-20T01:20:04.268Z,4.90
2018-09-20T01:21:04.421Z,5.80
2018-09-20T01:22:04.580Z,5.60
2018-09-20T01:23:04.733Z,5.80
2018-09-20T01:24:04.893Z,5.90
2018-09-20T01:25:05.042Z,5.40
2018-09-20T01:26:05.193Z,5.40
2018-09-20T01:27:05.348Z,5.70
2018-09-20T01:28:05.501Z,5.70
2018-09-20T01:29:05.657Z,5.40
2018-09-20T01:30:05.808Z,5.90
2018-09-20T01:31:05.959Z,5.90
2018-09-20T01:32:06.112Z,6.30
2018-09-20T01:33:06.265Z,6.80
2018-09-20T01:34:06.417Z,6.70
2018-09-20T01:35:06.572Z,6.90
2018-09-20T01:36:06.725Z,6.90
2018-09-20T01:37:06.877Z,7.10
2018-09-20T01:38:07.029Z,7.60
2018-09-20T01:39:07.184Z,7.40
2018-09-20T01:40:07.335Z,6.90
2018-09-20T01:41:07.489Z,6.90
2018-09-20T01:42:07.642Z,7.10
2018-09-20T01:43:07.797Z,6.80
2018-09-20T01:44:07.949Z,6.80
2018-09-20T01:45:08.100Z,6.70
2018-09-20T01:46:08.255Z,6.90
2018-09-20T01:47:08.406Z,6.60
2018-09-20T01:48:08.559Z,6.70
2018-09-20T01:49:08.711Z,6.10
2018-09-20T01:50:08.865Z,6.40
2018-09-20T01:51:09.019Z,6.30
2018-09-20T01:52:09.171Z,5.50
2018-09-20T01:53:09.322Z,6.30
2018-09-20T01:54:09.476Z,6.40
2018-09-20T01:55:09.634Z,5.90
2018-09-20T01:56:09.783Z,6.00
2018-09-20T01:57:09.938Z,5.90
2018-09-20T01:58:10.092Z,6.00
2018-09-20T01:59:10.241Z,6.10
2018-09-20T02:00:10.396Z,6.20
2018-09-20T02:01:10.549Z,5.90
2018-09-20T02:02:10.701Z,5.80
2018-09-20T02:03:10.855Z,5.40
2018-09-20T02:04:11.009Z,5.60
2018-09-20T02:05:11.163Z,5.90
2018-09-20T02:06:11.319Z,5.50
2018-09-20T02:07:11.470Z,5.80
2018-09-20T02:08:11.623Z,5.60
2018-09-20T02:09:11.779Z,5.60
2018-09-20T02:10:11.928Z,5.70
2018-09-20T02:11:12.084Z,5.20
2018-09-20T02:12:12.237Z,5.40
2018-09-20T02:13:12.390Z,5.60
2018-09-20T02:14:12.544Z,5.70
2018-09-20T02:15:12.697Z,5.90
2018-09-20T02:16:12.853Z,5.80
2018-09-20T02:17:13.004Z,5.60
2018-09-20T02:18:13.155Z,5.70
2018-09-20T02:19:13.310Z,5.60
2018-09-20T02:20:13.462Z,5.20
2018-09-20T02:21:13.614Z,5.40
2018-09-20T02:22:13.768Z,5.80
2018-09-20T02:23:13.921Z,6.20
2018-09-20T02:24:14.073Z,6.10
2018-09-20T02:25:14.228Z,6.20
2018-09-20T02:26:14.379Z,6.00
2018-09-20T02:27:14.537Z,6.00
2018-09-20T02:28:14.685Z,5.70
2018-09-20T02:29:14.840Z,5.90
2018-09-20T02:30:14.993Z,5.60
2018-09-20T02:31:15.145Z,5.90
2018-09-20T02:32:15.309Z,6.30
2018-09-20T02:33:15.455Z,5.90
2018-09-20T02:34:15.604Z,5.90
2018-09-20T02:35:15.779Z,5.80
2018-09-20T02:36:15.911Z,6.00
2018-09-20T02:37:16.065Z,7.40
2018-09-20T02:38:16.230Z,6.60
2018-09-20T02:39:16.375Z,7.10
2018-09-20T02:40:16.525Z,7.00
2018-09-20T02:41:16.680Z,7.10
2018-09-20T02:42:16.841Z,7.10
2018-09-20T02:43:17.059Z,7.50
2018-09-20T02:44:17.140Z,7.80
2018-09-20T02:45:17.296Z,8.10
2018-09-20T02:46:17.447Z,7.60
2018-09-20T02:47:17.601Z,7.60
2018-09-20T02:48:17.754Z,7.20
2018-09-20T02:49:17.911Z,8.30
2018-09-20T02:50:18.062Z,8.60
2018-09-20T02:51:18.218Z,8.20
2018-09-20T02:52:18.373Z,8.10
2018-09-20T02:53:18.524Z,8.10
2018-09-20T02:54:18.677Z,8.40
2018-09-20T02:55:18.828Z,8.10
2018-09-20T02:56:18.986Z,8.40
2018-09-20T02:57:19.140Z,7.80
2018-09-20T02:58:19.288Z,7.70
2018-09-20T02:59:19.443Z,8.10
2018-09-20T03:00:19.595Z,8.80
2018-09-20T03:01:19.748Z,8.50
2018-09-20T03:02:19.901Z,8.30
2018-09-20T03:03:20.054Z,8.80
2018-09-20T03:04:20.216Z,7.20
2018-09-20T03:05:20.362Z,6.60
2018-09-20T03:06:20.515Z,6.90
2018-09-20T03:07:20.668Z,6.70
2018-09-20T03:08:20.820Z,7.20
2018-09-20T03:09:20.973Z,6.60
2018-09-20T03:10:21.160Z,6.80
2018-09-20T03:11:21.311Z,6.60
2018-09-20T03:12:21.463Z,6.40
2018-09-20T03:13:21.616Z,6.30
2018-09-20T03:14:21.770Z,6.00
2018-09-20T03:15:21.921Z,6.40
2018-09-20T03:16:22.078Z,6.10
2018-09-20T03:17:22.227Z,5.90
2018-09-20T03:18:22.381Z,6.20
2018-09-20T03:19:22.536Z,6.30
2018-09-20T03:20:22.689Z,5.90
2018-09-20T03:21:22.841Z,6.40
2018-09-20T03:22:22.994Z,6.40
2018-09-20T03:23:23.149Z,6.40
2018-09-20T03:24:23.301Z,6.90
2018-09-20T03:25:23.452Z,6.40
2018-09-20T03:26:23.604Z,6.90
2018-09-20T03:27:23.757Z,6.30
2018-09-20T03:28:23.910Z,6.60
2018-09-20T03:29:24.061Z,5.90
2018-09-20T03:30:24.313Z,6.30
2018-09-20T03:31:24.372Z,6.30
2018-09-20T03:32:24.521Z,6.40
2018-09-20T03:33:24.675Z,6.50
2018-09-20T03:34:24.824Z,5.90
2018-09-20T03:35:24.981Z,6.60
2018-09-20T03:36:25.129Z,5.90
2018-09-20T03:37:25.284Z,6.30
2018-09-20T03:38:25.436Z,6.70
2018-09-20T03:39:25.590Z,6.80
2018-09-20T03:40:25.743Z,6.80
2018-09-20T03:41:25.895Z,6.10
2018-09-20T03:42:26.051Z,6.50
2018-09-20T03:43:26.203Z,6.50
2018-09-20T03:44:26.356Z,6.60
2018-09-20T03:45:26.509Z,5.80
2018-09-20T03:46:26.666Z,6.10
2018-09-20T03:47:26.819Z,6.50
2018-09-20T03:48:26.973Z,6.50
2018-09-20T03:49:27.127Z,6.60
2018-09-20T03:50:27.279Z,6.50
2018-09-20T03:51:27.431Z,6.50
2018-09-20T03:52:27.583Z,6.50
2018-09-20T03:53:27.736Z,6.50
2018-09-20T03:54:27.888Z,6.00
2018-09-20T03:55:28.040Z,6.10
2018-09-20T03:56:28.194Z,6.70
2018-09-20T03:57:28.347Z,6.10
2018-09-20T03:58:28.498Z,6.20
2018-09-20T03:59:28.650Z,6.40
2018-09-20T04:00:28.805Z,6.50
2018-09-20T04:01:28.955Z,6.60
2018-09-20T04:02:29.109Z,6.30
2018-09-20T04:03:29.281Z,6.70
2018-09-20T04:04:29.424Z,6.50
2018-09-20T04:05:29.568Z,6.80
2018-09-20T04:06:29.720Z,6.60
2018-09-20T04:07:29.876Z,6.40
2018-09-20T04:08:30.024Z,6.80
2018-09-20T04:09:30.181Z,6.90
2018-09-20T04:10:30.330Z,6.60
2018-09-20T04:11:30.484Z,6.40
2018-09-20T04:12:30.634Z,6.80
2018-09-20T04:13:30.792Z,6.60
2018-09-20T04:14:30.941Z,6.80
2018-09-20T04:15:31.097Z,6.30
2018-09-20T04:16:31.249Z,6.90
2018-09-20T04:17:31.402Z,6.40
2018-09-20T04:18:31.555Z,6.70
2018-09-20T04:19:31.710Z,6.50
2018-09-20T04:20:31.861Z,6.40
2018-09-20T04:21:32.013Z,6.70
2018-09-20T04:22:32.167Z,6.20
2018-09-20T04:23:32.319Z,6.30
2018-09-20T04:24:32.471Z,6.90
2018-09-20T04:25:32.627Z,6.30
2018-09-20T04:26:32.777Z,6.40
2018-09-20T04:27:32.929Z,6.30
2018-09-20T04:28:33.083Z,6.30
2018-09-20T04:29:33.235Z,6.60
2018-09-20T04:30:33.387Z,6.30
2018-09-20T04:31:33.548Z,6.40
2018-09-20T04:32:33.692Z,6.50
2018-09-20T04:33:33.844Z,6.30
2018-09-20T04:34:34.000Z,6.70
2018-09-20T04:35:34.152Z,6.70
2018-09-20T04:36:34.308Z,6.40
2018-09-20T04:37:34.457Z,6.70
2018-09-20T04:38:34.609Z,6.70
2018-09-20T04:39:34.762Z,6.60
2018-09-20T04:40:34.915Z,6.70
2018-09-20T04:41:35.067Z,6.80
2018-09-20T04:42:35.217Z,6.10
2018-09-20T04:43:35.372Z,6.80
2018-09-20T04:44:35.522Z,6.50
2018-09-20T04:45:35.676Z,7.20
2018-09-20T04:46:35.831Z,6.40
2018-09-20T04:47:35.983Z,6.40
2018-09-20T04:48:36.139Z,6.90
2018-09-20T04:49:36.288Z,7.30
2018-09-20T04:50:36.443Z,7.30
2018-09-20T04:51:36.593Z,6.40
2018-09-20T04:52:36.748Z,6.80
2018-09-20T04:53:36.905Z,6.60
2018-09-20T04:54:37.053Z,6.70
2018-09-20T04:55:37.208Z,6.50
2018-09-20T04:56:37.361Z,7.00
2018-09-20T04:57:37.510Z,7.10
2018-09-20T04:58:37.663Z,6.10
2018-09-20T04:59:37.817Z,6.70
2018-09-20T05:00:37.969Z,6.60
2018-09-20T05:01:38.121Z,6.70
2018-09-20T05:02:38.274Z,6.80
2018-09-20T05:03:38.425Z,6.90
2018-09-20T05:04:38.578Z,6.40
2018-09-20T05:05:38.752Z,6.20
2018-09-20T05:06:38.876Z,6.70
2018-09-20T05:07:39.034Z,7.00
2018-09-20T05:08:39.190Z,6.90
2018-09-20T05:09:39.356Z,6.50
2018-09-20T05:10:39.493Z,6.90
2018-09-20T05:11:39.642Z,6.10
2018-09-20T05:12:39.796Z,7.20
2018-09-20T05:13:39.949Z,6.60
2018-09-20T05:14:40.108Z,6.70
2018-09-20T05:15:40.257Z,6.60
2018-09-20T05:16:40.408Z,7.00
2018-09-20T05:17:40.566Z,6.60
2018-09-20T05:18:40.715Z,6.90
2018-09-20T05:19:40.869Z,6.80
2018-09-20T05:20:41.022Z,5.80
2018-09-20T05:21:41.172Z,6.70
2018-09-20T05:22:41.325Z,6.50
2018-09-20T05:23:41.480Z,6.50
2018-09-20T05:24:41.632Z,6.30
2018-09-20T05:25:41.785Z,6.50
2018-09-20T05:26:41.937Z,6.70
2018-09-20T05:27:42.091Z,6.50
2018-09-20T05:28:42.246Z,6.50
2018-09-20T05:29:42.396Z,6.20
2018-09-20T05:30:42.552Z,6.70
2018-09-20T05:31:42.701Z,6.90
2018-09-20T05:32:42.859Z,6.70
2018-09-20T05:33:43.009Z,6.40
2018-09-20T05:34:43.161Z,6.90
2018-09-20T05:35:43.314Z,6.70
2018-09-20T05:36:43.471Z,6.90
2018-09-20T05:37:43.620Z,6.90
2018-09-20T05:38:43.772Z,6.20
2018-09-20T05:39:43.924Z,6.90
2018-09-20T05:40:44.077Z,7.30
2018-09-20T05:41:44.238Z,6.60
2018-09-20T05:42:44.384Z,6.30
2018-09-20T05:43:44.537Z,6.90
2018-09-20T05:44:44.694Z,6.60
2018-09-20T05:45:44.847Z,7.00
2018-09-20T05:46:44.999Z,7.10
2018-09-20T05:47:45.156Z,6.50
2018-09-20T05:48:45.305Z,6.70
2018-09-20T05:49:45.457Z,6.50
2018-09-20T05:50:45.632Z,6.50
2018-09-20T05:51:45.764Z,6.60
2018-09-20T05:52:45.916Z,6.60
2018-09-20T05:53:46.068Z,6.80
2018-09-20T05:54:46.221Z,7.20
2018-09-20T05:55:47.999Z,7.00
2018-09-20T05:56:46.532Z,7.20
2018-09-20T05:57:46.682Z,6.80
2018-09-20T05:58:46.835Z,6.90
2018-09-20T05:59:46.989Z,7.10
2018-09-20T06:00:47.143Z,6.90
2018-09-20T06:01:47.296Z,6.60
2018-09-20T06:02:47.448Z,6.80
2018-09-20T06:03:47.601Z,6.70
2018-09-20T06:04:47.754Z,7.00
2018-09-20T06:05:47.936Z,6.80
2018-09-20T06:06:48.059Z,7.30
2018-09-20T06:07:48.213Z,7.20
2018-09-20T06:08:48.364Z,7.00
2018-09-20T06:09:48.520Z,7.00
2018-09-20T06:10:48.671Z,6.70
2018-09-20T06:11:48.825Z,6.80
2018-09-20T06:12:48.978Z,7.10
2018-09-20T06:13:49.129Z,6.90
2018-09-20T06:14:49.283Z,7.10
2018-09-20T06:15:49.435Z,6.90
2018-09-20T06:16:49.588Z,6.80
2018-09-20T06:17:49.745Z,7.10
2018-09-20T06:18:49.894Z,6.90
2018-09-20T06:19:50.047Z,6.90
2018-09-20T06:20:50.200Z,6.80
2018-09-20T06:21:50.435Z,6.50
2018-09-20T06:22:50.507Z,7.30
2018-09-20T06:23:50.663Z,7.20
2018-09-20T06:24:50.817Z,7.20
2018-09-20T06:25:50.986Z,7.10
2018-09-20T06:26:51.120Z,7.10
2018-09-20T06:27:51.298Z,7.30
2018-09-20T06:28:51.455Z,7.40
2018-09-20T06:29:51.605Z,7.30
2018-09-20T06:30:51.755Z,7.10
2018-09-20T06:31:51.907Z,7.20
2018-09-20T06:32:52.062Z,7.10
2018-09-20T06:33:52.216Z,7.00
2018-09-20T06:34:52.378Z,7.20
2018-09-20T06:35:52.522Z,7.10
2018-09-20T06:36:52.703Z,7.50
2018-09-20T06:37:52.828Z,7.40
2018-09-20T06:38:52.979Z,7.30
2018-09-20T06:39:53.136Z,6.70
2018-09-20T06:40:53.296Z,7.30
2018-09-20T06:41:53.445Z,7.40
2018-09-20T06:42:53.594Z,6.80
2018-09-20T06:43:53.749Z,7.50
2018-09-20T06:44:53.905Z,7.20
2018-09-20T06:45:54.058Z,7.70
2018-09-20T06:46:54.208Z,7.20
2018-09-20T06:47:54.362Z,7.40
2018-09-20T06:48:54.515Z,7.10
2018-09-20T06:49:54.669Z,7.50
2018-09-20T06:50:54.821Z,7.70
2018-09-20T06:51:54.976Z,7.50
2018-09-20T06:52:55.129Z,7.80
2018-09-20T06:53:55.283Z,7.20
2018-09-20T06:54:55.435Z,7.70
2018-09-20T06:55:55.593Z,7.80
2018-09-20T06:56:55.741Z,7.90
2018-09-20T06:57:55.894Z,7.10
2018-09-20T06:58:56.048Z,7.50
2018-09-20T06:59:56.200Z,7.60
2018-09-20T07:00:56.353Z,7.40
2018-09-20T07:01:56.507Z,7.90
2018-09-20T07:02:56.670Z,7.60
2018-09-20T07:03:56.813Z,7.60
2018-09-20T07:04:56.968Z,7.40
2018-09-20T07:05:57.121Z,7.40
2018-09-20T07:06:57.273Z,7.80
2018-09-20T07:07:57.427Z,7.60
2018-09-20T07:08:57.580Z,8.00
2018-09-20T07:09:57.734Z,7.80
2018-09-20T07:10:57.887Z,8.10
2018-09-20T07:11:58.039Z,8.20
2018-09-20T07:12:58.192Z,7.70
2018-09-20T07:13:58.348Z,7.70
2018-09-20T07:14:58.501Z,7.80
2018-09-20T07:15:58.655Z,7.40
2018-09-20T07:16:58.807Z,7.80
2018-09-20T07:17:58.958Z,8.00
2018-09-20T07:18:59.165Z,7.50
2018-09-20T07:19:59.269Z,7.80
2018-09-20T07:20:59.423Z,7.40
2018-09-20T07:21:59.576Z,7.60
2018-09-20T07:22:59.732Z,7.90
2018-09-20T07:23:59.883Z,7.70
2018-09-20T07:25:00.036Z,8.00
2018-09-20T07:26:00.191Z,7.90
2018-09-20T07:27:00.346Z,7.50
2018-09-20T07:28:00.498Z,8.00
2018-09-20T07:29:00.658Z,7.60
2018-09-20T07:30:00.807Z,7.30
2018-09-20T07:31:00.960Z,7.60
2018-09-20T07:32:01.115Z,7.50
2018-09-20T07:33:01.268Z,7.80
2018-09-20T07:34:01.425Z,8.10
2018-09-20T07:35:01.574Z,7.70
2018-09-20T07:36:01.731Z,7.40
2018-09-20T07:37:01.885Z,7.60
2018-09-20T07:38:02.038Z,7.60
2018-09-20T07:39:02.191Z,7.80
2018-09-20T07:40:02.345Z,7.90
2018-09-20T07:41:02.497Z,7.60
2018-09-20T07:42:02.676Z,7.50
2018-09-20T07:43:02.806Z,7.40
2018-09-20T07:44:02.959Z,6.90
2018-09-20T07:45:03.120Z,7.30
2018-09-20T07:46:03.269Z,7.20
2018-09-20T07:47:03.423Z,6.90
2018-09-20T07:48:03.578Z,7.00
2018-09-20T07:49:03.731Z,6.80
2018-09-20T07:50:03.885Z,6.90
2018-09-20T07:51:04.046Z,6.80
2018-09-20T07:52:04.192Z,7.10
2018-09-20T07:53:04.347Z,6.40
2018-09-20T07:54:04.502Z,7.10
2018-09-20T07:55:04.658Z,7.20
2018-09-20T07:56:04.811Z,6.60
2018-09-20T07:57:04.967Z,7.10
2018-09-20T07:58:05.119Z,6.40
2018-09-20T07:59:05.274Z,6.60
2018-09-20T08:00:05.432Z,6.50
2018-09-20T08:01:05.585Z,7.00
2018-09-20T08:02:05.914Z,6.50
2018-09-20T08:03:05.895Z,5.90
2018-09-20T08:04:06.051Z,6.30
2018-09-20T08:05:06.207Z,6.60
2018-09-20T08:06:06.362Z,6.40
2018-09-20T08:07:06.572Z,6.00
2018-09-20T08:08:06.667Z,7.00
2018-09-20T08:09:06.823Z,6.50
2018-09-20T08:10:06.983Z,5.70
2018-09-20T08:11:07.149Z,6.70
2018-09-20T08:12:07.304Z,6.50
2018-09-20T08:13:07.457Z,6.70
2018-09-20T08:14:07.614Z,6.60
2018-09-20T08:15:07.768Z,6.00
2018-09-20T08:16:07.924Z,5.90
2018-09-20T08:17:08.079Z,6.60
2018-09-20T08:18:08.234Z,5.30
2018-09-20T08:19:08.392Z,6.20
2018-09-20T08:20:08.545Z,6.00
2018-09-20T08:21:08.700Z,6.50
2018-09-20T08:22:08.855Z,5.80
2018-09-20T08:23:09.010Z,6.40
2018-09-20T08:24:09.166Z,6.30
2018-09-20T08:25:09.322Z,6.00
2018-09-20T08:26:09.476Z,5.80
2018-09-20T08:27:09.632Z,6.00
2018-09-20T08:28:09.786Z,6.00
2018-09-20T08:29:09.942Z,6.00
2018-09-20T08:30:10.096Z,6.10
2018-09-20T08:31:10.251Z,6.20
2018-09-20T08:32:10.407Z,6.00
2018-09-20T08:33:10.564Z,6.40
2018-09-20T08:34:10.721Z,6.20
2018-09-20T08:35:10.874Z,5.50
2018-09-20T08:36:11.031Z,6.00
2018-09-20T08:37:11.204Z,6.00
2018-09-20T08:38:11.345Z,6.20
2018-09-20T08:39:11.503Z,5.80
2018-09-20T08:40:11.656Z,6.70
2018-09-20T08:41:11.810Z,6.40
2018-09-20T08:42:12.030Z,5.70
2018-09-20T08:43:12.125Z,5.90
2018-09-20T08:44:12.281Z,5.50
2018-09-20T08:45:12.436Z,5.30
2018-09-20T08:46:12.592Z,5.90
2018-09-20T08:47:12.751Z,5.90
2018-09-20T08:48:12.906Z,6.00
2018-09-20T08:49:13.063Z,6.30
2018-09-20T08:50:13.221Z,5.80
2018-09-20T08:51:13.381Z,5.10
2018-09-20T08:52:13.535Z,5.40
2018-09-20T08:53:13.692Z,5.20
2018-09-20T08:54:13.850Z,5.10
2018-09-20T08:55:14.003Z,5.70
2018-09-20T08:56:14.157Z,5.30
2018-09-20T08:57:14.372Z,5.00
2018-09-20T08:58:14.469Z,5.00
2018-09-20T08:59:14.629Z,4.60
2018-09-20T09:00:14.784Z,4.30
2018-09-20T09:01:14.946Z,4.70
2018-09-20T09:02:15.098Z,4.40
2018-09-20T09:03:15.257Z,4.90
2018-09-20T09:04:15.413Z,4.70
2018-09-20T09:05:15.570Z,4.30
2018-09-20T09:06:15.728Z,3.90
2018-09-20T09:07:15.882Z,4.10
2018-09-20T09:08:16.042Z,4.00
2018-09-20T09:09:16.198Z,3.80
2018-09-20T09:10:16.359Z,4.00
2018-09-20T09:11:16.515Z,4.70
2018-09-20T09:12:16.671Z,3.70
2018-09-20T09:13:16.827Z,3.90
2018-09-20T09:14:16.983Z,3.60
2018-09-20T09:15:17.144Z,3.80
2018-09-20T09:16:17.300Z,4.00
2018-09-20T09:17:17.460Z,3.80
2018-09-20T09:18:17.617Z,3.90
2018-09-20T09:19:17.775Z,3.70
2018-09-20T09:20:17.933Z,3.90
2018-09-20T09:21:18.091Z,3.60
2018-09-20T09:22:18.247Z,3.50
2018-09-20T09:23:18.406Z,4.00
2018-09-20T09:24:18.563Z,3.70
2018-09-20T09:25:18.723Z,3.50
2018-09-20T09:26:18.879Z,4.40
2018-09-20T09:27:19.036Z,2.80
2018-09-20T09:28:19.193Z,3.40
2018-09-20T09:29:19.351Z,3.30
2018-09-20T09:30:19.509Z,3.30
2018-09-20T09:31:19.666Z,3.30
2018-09-20T09:32:19.824Z,3.30
2018-09-20T09:33:19.981Z,3.30
2018-09-20T09:34:20.175Z,3.40
2018-09-20T09:35:20.295Z,3.20
2018-09-20T09:36:20.455Z,3.70
2018-09-20T09:37:20.614Z,3.30
2018-09-20T09:38:20.773Z,3.20
2018-09-20T09:39:20.930Z,3.30
2018-09-20T09:40:21.091Z,3.40
2018-09-20T09:41:21.250Z,3.00
2018-09-20T09:42:21.435Z,3.00
2018-09-20T09:43:21.592Z,2.80
2018-09-20T09:44:21.748Z,3.20
2018-09-20T09:45:21.908Z,3.10
2018-09-20T09:46:22.066Z,3.20
2018-09-20T09:47:22.225Z,3.10
2018-09-20T09:48:22.384Z,2.80
2018-09-20T09:49:22.542Z,2.90
2018-09-20T09:50:22.700Z,2.70
2018-09-20T09:51:22.860Z,3.30
2018-09-20T09:52:23.017Z,2.60
2018-09-20T09:53:23.174Z,2.90
2018-09-20T09:54:23.349Z,2.90
2018-09-20T09:55:23.492Z,2.90
2018-09-20T09:56:23.650Z,3.20
2018-09-20T09:57:23.809Z,2.90
2018-09-20T09:58:23.963Z,3.30
2018-09-20T09:59:24.124Z,2.60
2018-09-20T10:00:24.283Z,3.00
2018-09-20T10:01:24.440Z,3.10
2018-09-20T10:02:24.641Z,2.90
2018-09-20T10:03:24.760Z,2.90
2018-09-20T10:04:24.922Z,2.90
2018-09-20T10:05:25.078Z,2.90
2018-09-20T10:06:25.241Z,2.80
2018-09-20T10:07:25.446Z,2.90
2018-09-20T10:08:25.554Z,3.10
2018-09-20T10:09:25.714Z,2.90
2018-09-20T10:10:25.872Z,3.00
2018-09-20T10:11:26.029Z,3.20
2018-09-20T10:12:26.189Z,3.20
2018-09-20T10:13:26.411Z,3.00
2018-09-20T10:14:26.508Z,3.00
2018-09-20T10:15:26.669Z,2.70
2018-09-20T10:16:26.825Z,2.60
2018-09-20T10:17:26.986Z,2.80
2018-09-20T10:18:27.142Z,2.70
2018-09-20T10:19:27.303Z,2.90
2018-09-20T10:20:27.461Z,2.80
2018-09-20T10:21:27.621Z,2.80
2018-09-20T10:22:27.780Z,2.50
2018-09-20T10:23:27.941Z,2.90
2018-09-20T10:24:28.101Z,2.90
2018-09-20T10:25:28.263Z,2.90
2018-09-20T10:26:28.421Z,2.70
2018-09-20T10:27:28.581Z,3.00
2018-09-20T10:28:28.741Z,2.60
2018-09-20T10:29:28.903Z,3.10
2018-09-20T10:30:29.060Z,2.60
2018-09-20T10:31:29.286Z,2.90
2018-09-20T10:32:29.381Z,2.80
2018-09-20T10:33:29.540Z,2.50
2018-09-20T10:34:29.700Z,2.90
2018-09-20T10:35:29.858Z,2.70
2018-09-20T10:36:30.019Z,2.90
2018-09-20T10:37:30.181Z,2.60
2018-09-20T10:38:30.339Z,2.70
2018-09-20T10:39:30.497Z,2.80
2018-09-20T10:40:30.656Z,2.90
2018-09-20T10:41:30.816Z,2.90
2018-09-20T10:42:30.976Z,2.80
2018-09-20T10:43:31.137Z,2.70
2018-09-20T10:44:31.310Z,2.70
2018-09-20T10:45:31.456Z,2.80
2018-09-20T10:46:31.616Z,2.80
2018-09-20T10:47:31.772Z,2.80
2018-09-20T10:48:31.933Z,2.70
2018-09-20T10:49:32.095Z,2.90
2018-09-20T10:50:32.253Z,3.30
2018-09-20T10:51:32.411Z,2.60
2018-09-20T10:52:32.573Z,2.60
2018-09-20T10:53:32.731Z,2.90
2018-09-20T10:54:32.949Z,2.70
2018-09-20T10:55:33.054Z,2.70
2018-09-20T10:56:33.214Z,2.90
2018-09-20T10:57:33.372Z,2.90
2018-09-20T10:58:33.532Z,2.70
2018-09-20T10:59:33.693Z,2.50
2018-09-20T11:00:33.855Z,3.00
2018-09-20T11:01:34.012Z,2.80
2018-09-20T11:02:34.173Z,2.60
2018-09-20T11:03:34.334Z,2.60
2018-09-20T11:04:34.497Z,2.50
2018-09-20T11:05:34.655Z,2.90
2018-09-20T11:06:34.812Z,2.60
2018-09-20T11:07:34.971Z,2.90
2018-09-20T11:08:35.129Z,2.90
2018-09-20T11:09:35.289Z,2.60
2018-09-20T11:10:35.483Z,2.90
2018-09-20T11:11:35.610Z,2.80
2018-09-20T11:12:35.770Z,2.60
2018-09-20T11:13:35.930Z,2.50
2018-09-20T11:14:36.092Z,2.80
2018-09-20T11:15:36.253Z,2.40
2018-09-20T11:16:36.416Z,2.80
2018-09-20T11:17:36.571Z,2.50
2018-09-20T11:18:36.731Z,2.80
2018-09-20T11:19:36.889Z,2.50
2018-09-20T11:20:37.047Z,2.90
2018-09-20T11:21:37.208Z,2.90
2018-09-20T11:22:37.368Z,2.50
2018-09-20T11:23:37.529Z,2.80
2018-09-20T11:24:37.689Z,2.80
2018-09-20T11:25:37.853Z,2.30
2018-09-20T11:26:38.011Z,2.80
2018-09-20T11:27:38.175Z,2.40
2018-09-20T11:28:38.334Z,2.70
2018-09-20T11:29:38.493Z,2.70
2018-09-20T11:30:38.656Z,2.90
2018-09-20T11:31:38.814Z,2.40
2018-09-20T11:32:38.972Z,2.60
2018-09-20T11:33:39.133Z,2.40
2018-09-20T11:34:39.301Z,2.20
2018-09-20T11:35:39.452Z,2.40
2018-09-20T11:36:39.613Z,2.40
2018-09-20T11:37:39.776Z,2.50
2018-09-20T11:38:39.938Z,2.50
2018-09-20T11:39:40.096Z,2.60
2018-09-20T11:40:40.255Z,2.70
2018-09-20T11:41:40.423Z,2.40
2018-09-20T11:42:40.581Z,2.70
2018-09-20T11:43:40.745Z,2.80
2018-09-20T11:44:40.900Z,2.40
2018-09-20T11:45:41.066Z,2.20
2018-09-20T11:46:41.284Z,2.40
2018-09-20T11:47:41.383Z,2.60
2018-09-20T11:48:41.546Z,2.50
2018-09-20T11:49:41.707Z,2.60
2018-09-20T11:50:41.864Z,2.50
2018-09-20T11:51:42.029Z,2.40
2018-09-20T11:52:42.184Z,2.40
2018-09-20T11:53:42.343Z,2.70
2018-09-20T11:54:42.507Z,2.50
2018-09-20T11:55:42.668Z,2.40
2018-09-20T11:56:42.826Z,2.50
2018-09-20T11:57:42.992Z,2.40
2018-09-20T11:58:43.149Z,2.50
2018-09-20T11:59:43.311Z,2.70
2018-09-20T12:00:43.474Z,2.30
2018-09-20T12:01:43.638Z,2.50
2018-09-20T12:02:43.789Z,2.40
2018-09-20T12:03:43.949Z,2.20
2018-09-20T12:04:44.109Z,2.50
2018-09-20T12:05:44.270Z,2.40
2018-09-20T12:06:44.430Z,2.20
2018-09-20T12:07:44.591Z,2.70
2018-09-20T12:08:44.751Z,2.40
2018-09-20T12:09:44.912Z,2.40
2018-09-20T12:10:45.073Z,2.40
2018-09-20T12:11:45.234Z,2.60
2018-09-20T12:12:45.391Z,2.70
2018-09-20T12:13:45.552Z,2.80
2018-09-20T12:14:45.719Z,2.50
2018-09-20T12:15:45.879Z,2.50
2018-09-20T12:16:46.034Z,2.60
2018-09-20T12:17:46.200Z,2.20
2018-09-20T12:18:46.356Z,2.80
2018-09-20T12:19:46.524Z,2.80
2018-09-20T12:20:46.676Z,2.60
2018-09-20T12:21:46.840Z,2.40
2018-09-20T12:22:46.998Z,2.40
2018-09-20T12:23:47.161Z,2.60
2018-09-20T12:24:47.322Z,2.50
2018-09-20T12:25:47.533Z,2.60
2018-09-20T12:26:47.642Z,2.40
2018-09-20T12:27:47.804Z,2.80
2018-09-20T12:28:47.970Z,2.60
2018-09-20T12:29:48.133Z,2.40
2018-09-20T12:30:48.295Z,2.40
2018-09-20T12:31:48.482Z,2.50
2018-09-20T12:32:48.694Z,2.40
2018-09-20T12:33:48.774Z,2.30
2018-09-20T12:34:48.935Z,2.40
2018-09-20T12:35:49.231Z,2.40
2018-09-20T12:36:49.256Z,2.00
2018-09-20T12:37:49.416Z,2.40
2018-09-20T12:38:49.593Z,2.30
2018-09-20T12:39:49.737Z,2.30
2018-09-20T12:40:49.903Z,2.10
2018-09-20T12:41:50.063Z,2.40
2018-09-20T12:42:50.296Z,2.10
2018-09-20T12:43:50.386Z,2.60
2018-09-20T12:44:50.544Z,2.40
2018-09-20T12:45:50.708Z,2.30
2018-09-20T12:46:50.868Z,2.70
2018-09-20T12:47:51.029Z,2.50
2018-09-20T12:48:51.188Z,2.50
2018-09-20T12:49:51.351Z,2.40
2018-09-20T12:50:52.062Z,2.40
2018-09-20T12:51:51.680Z,2.70
2018-09-20T12:52:51.844Z,3.00
2018-09-20T12:53:52.000Z,2.70
2018-09-20T12:54:52.163Z,2.50
2018-09-20T12:55:52.323Z,2.50
2018-09-20T12:56:52.486Z,2.20
2018-09-20T12:57:52.647Z,2.40
2018-09-20T12:58:52.807Z,2.60
2018-09-20T12:59:52.971Z,2.40
2018-09-20T13:00:53.134Z,2.20
2018-09-20T13:01:53.294Z,2.80
2018-09-20T13:02:53.457Z,2.40
2018-09-20T13:03:53.615Z,2.50
2018-09-20T13:04:53.778Z,2.40
2018-09-20T13:05:53.941Z,2.80
2018-09-20T13:06:54.098Z,2.30
2018-09-20T13:07:54.259Z,2.70
2018-09-20T13:08:54.419Z,2.70
2018-09-20T13:09:54.584Z,2.40
2018-09-20T13:10:54.745Z,3.20
2018-09-20T13:11:54.908Z,2.30
2018-09-20T13:12:55.081Z,2.70
2018-09-20T13:13:55.228Z,2.40
2018-09-20T13:14:55.390Z,2.50
2018-09-20T13:15:55.553Z,2.30
2018-09-20T13:16:55.713Z,2.30
2018-09-20T13:17:55.872Z,2.30
2018-09-20T13:18:56.033Z,2.20
2018-09-20T13:19:56.225Z,2.10
2018-09-20T13:20:56.357Z,2.50